Flight Track Log - Related Links

Times and Time Zones

All times are in EDT time to prevent confusion due to time zone crossing. See the AWE476 flight status page for this flight to view local times or setup timezone preferences in your user account.

Time Position Orientation Groundspeed Altitude Reporting Facility
EDT Latitude Longitude Course Direction KTS MPH feet Rate Location/Type
03:23PM 33.4292 -112.0419 256° West 162 186 2,500  Level Albuquerque Center
03:23PM 33.4167 -112.1000 257° West 213 245 4,000 2,051 Climbing Phoenix TRACON
03:24PM 33.3833 -112.1833 244° Southwest 270 311 6,500 2,474 Climbing Phoenix TRACON
03:25PM 33.3000 -112.1667 171° South 294 338 8,700 2,473 Climbing Phoenix TRACON
03:27PM 33.1994 -112.1547 174° South 307 353 11,900 2,245 Climbing Albuquerque Center
03:28PM 33.1444 -112.0747 129° Southeast 321 369 13,900 2,032 Climbing Albuquerque Center
03:29PM 33.0722 -112.0064 142° Southeast 352 405 16,100 1,920 Climbing Albuquerque Center
03:30PM 32.9794 -111.9567 156° South 365 420 17,900 1,440 Climbing Albuquerque Center
03:31PM 32.8831 -111.9036 155° Southeast 380 437 19,100 968 Climbing Albuquerque Center
03:32PM 32.7844 -111.7769 133° Southeast 435 501 19,900 1,113 Climbing Albuquerque Center
03:33PM 32.6956 -111.6669 134° Southeast 459 528 21,400 1,355 Climbing Albuquerque Center
03:34PM 32.6044 -111.5506 133° Southeast 477 549 22,700 1,306 Climbing Albuquerque Center
03:35PM 32.5017 -111.4447 139° Southeast 493 567 24,100 1,306 Climbing Albuquerque Center
03:36PM 32.3703 -111.3911 161° South 498 573 25,400 1,344 Climbing Albuquerque Center
03:37PM 32.2106 -111.3217 160° South 503 579 26,900 1,200 Climbing Albuquerque Center
03:38PM 32.0767 -111.2642 160° South 508 585 27,900 1,016 Climbing Albuquerque Center
03:39PM 31.9403 -111.2058 160° South 517 595 29,000 1,113 Climbing Albuquerque Center
03:40PM 31.8042 -111.1464 160° South 520 598 30,200 1,113 Climbing Albuquerque Center
03:41PM 31.6661 -111.0900 161° South 520 598 31,300 1,161 Climbing Albuquerque Center
03:42PM 31.5303 -111.0314 160° South 521 600 32,600 823 Climbing Albuquerque Center
03:43PM 31.3686 -110.9700 162° South 513 590 33,000 387 Climbing Albuquerque Center
03:45PM 31.2158 -110.9399 183° South  Level FlightAware Approximate
03:52PM 30.3905 -110.8633 112° Southeast  Level FlightAware Approximate
03:53PM 30.3413 -110.7264 113° Southeast  Level FlightAware Approximate
03:54PM 30.2910 -110.5902 113° Southeast  Level FlightAware Approximate
03:55PM 30.2406 -110.4541 113° Southeast  Level FlightAware Approximate
03:56PM 30.1901 -110.3181 113° Southeast  Level FlightAware Approximate
03:57PM 30.1378 -110.1831 114° Southeast  Level FlightAware Approximate
03:58PM 30.0852 -110.0483 114° Southeast  Level FlightAware Approximate
03:59PM 30.0324 -109.9137 114° Southeast  Level FlightAware Approximate
04:00PM 29.9795 -109.7792 114° Southeast  Level FlightAware Approximate
04:01PM 29.9265 -109.6449 114° Southeast  Level FlightAware Approximate
04:02PM 29.8733 -109.5107 115° Southeast  Level FlightAware Approximate
04:03PM 29.8200 -109.3766 115° Southeast  Level FlightAware Approximate
04:04PM 29.7666 -109.2427 115° Southeast  Level FlightAware Approximate
04:05PM 29.7130 -109.1089 115° Southeast  Level FlightAware Approximate
04:06PM 29.6593 -108.9753 115° Southeast  Level FlightAware Approximate
04:07PM 29.6054 -108.8418 115° Southeast  Level FlightAware Approximate
04:08PM 29.5515 -108.7085 115° Southeast  Level FlightAware Approximate
04:09PM 29.4973 -108.5753 115° Southeast  Level FlightAware Approximate
04:10PM 29.4446 -108.4415 113° Southeast  Level FlightAware Approximate
04:11PM 29.3937 -108.3068 113° Southeast  Level FlightAware Approximate
04:12PM 29.3426 -108.1722 113° Southeast  Level FlightAware Approximate
04:13PM 29.2914 -108.0378 114° Southeast  Level FlightAware Approximate
04:14PM 29.2378 -107.9046 115° Southeast  Level FlightAware Approximate
04:15PM 29.1837 -107.7718 115° Southeast  Level FlightAware Approximate
04:16PM 29.1328 -107.6473 115° Southeast  Level FlightAware Approximate
04:17PM 29.0818 -107.5229 115° Southeast  Level FlightAware Approximate
04:18PM 29.0307 -107.3986 115° Southeast  Level FlightAware Approximate
04:19PM 28.9794 -107.2745 115° Southeast  Level FlightAware Approximate
04:20PM 28.9280 -107.1504 115° Southeast  Level FlightAware Approximate
04:21PM 28.8734 -107.0190 115° Southeast  Level FlightAware Approximate
04:22PM 28.8187 -106.8877 115° Southeast  Level FlightAware Approximate
04:23PM 28.7639 -106.7566 115° Southeast  Level FlightAware Approximate
04:24PM 28.7089 -106.6256 116° Southeast  Level FlightAware Approximate
04:25PM 28.6538 -106.4948 116° Southeast  Level FlightAware Approximate
04:26PM 28.5986 -106.3640 116° Southeast  Level FlightAware Approximate
04:27PM 28.5432 -106.2335 116° Southeast  Level FlightAware Approximate
04:28PM 28.4877 -106.1030 116° Southeast  Level FlightAware Approximate
04:29PM 28.4321 -105.9727 116° Southeast  Level FlightAware Approximate
04:30PM 28.3764 -105.8425 116° Southeast  Level FlightAware Approximate
04:31PM 28.3205 -105.7125 116° Southeast  Level FlightAware Approximate
04:32PM 28.2645 -105.5826 116° Southeast  Level FlightAware Approximate
04:33PM 28.2085 -105.4528 116° Southeast  Level FlightAware Approximate
04:34PM 28.1114 -105.3630 145° Southeast  Level FlightAware Approximate
04:35PM 28.0070 -105.2802 145° Southeast  Level FlightAware Approximate
04:36PM 27.9026 -105.1977 145° Southeast  Level FlightAware Approximate
04:37PM 27.7982 -105.1153 145° Southeast  Level FlightAware Approximate
04:38PM 27.6937 -105.0331 145° Southeast  Level FlightAware Approximate
04:39PM 27.5891 -104.9510 145° Southeast  Level FlightAware Approximate
04:40PM 27.4845 -104.8691 145° Southeast  Level FlightAware Approximate
04:41PM 27.3799 -104.7874 145° Southeast  Level FlightAware Approximate
04:42PM 27.2752 -104.7058 145° Southeast  Level FlightAware Approximate
04:43PM 27.1705 -104.6243 145° Southeast  Level FlightAware Approximate
04:44PM 27.0657 -104.5430 145° Southeast  Level FlightAware Approximate
04:45PM 26.9608 -104.4619 145° Southeast  Level FlightAware Approximate
04:46PM 26.8560 -104.3809 145° Southeast  Level FlightAware Approximate
04:47PM 26.7510 -104.3000 145° Southeast  Level FlightAware Approximate
04:48PM 26.6461 -104.2194 146° Southeast  Level FlightAware Approximate
04:49PM 26.5410 -104.1388 146° Southeast  Level FlightAware Approximate
04:50PM 26.4360 -104.0584 146° Southeast  Level FlightAware Approximate
04:51PM 26.3309 -103.9782 146° Southeast  Level FlightAware Approximate
04:52PM 26.2257 -103.8981 146° Southeast  Level FlightAware Approximate
04:53PM 26.1205 -103.8181 146° Southeast  Level FlightAware Approximate
04:54PM 26.0153 -103.7383 146° Southeast  Level FlightAware Approximate
04:55PM 25.9100 -103.6586 146° Southeast  Level FlightAware Approximate
04:56PM 25.8047 -103.5791 146° Southeast  Level FlightAware Approximate
04:57PM 25.6993 -103.4997 146° Southeast  Level FlightAware Approximate
04:58PM 25.5939 -103.4204 146° Southeast  Level FlightAware Approximate
04:59PM 25.5069 -103.3189 129° Southeast  Level FlightAware Approximate
05:00PM 25.4263 -103.2097 129° Southeast  Level FlightAware Approximate
05:01PM 25.3456 -103.1007 129° Southeast  Level FlightAware Approximate
05:02PM 25.2651 -102.9916 129° Southeast  Level FlightAware Approximate
05:03PM 25.1850 -102.8821 129° Southeast  Level FlightAware Approximate
05:04PM 25.1049 -102.7728 129° Southeast  Level FlightAware Approximate
05:05PM 25.0248 -102.6635 129° Southeast  Level FlightAware Approximate
05:06PM 24.9445 -102.5545 129° Southeast  Level FlightAware Approximate
05:07PM 24.8655 -102.4444 128° Southeast  Level FlightAware Approximate
05:08PM 24.7872 -102.3337 128° Southeast  Level FlightAware Approximate
05:09PM 24.7087 -102.2233 128° Southeast  Level FlightAware Approximate
05:10PM 24.6302 -102.1130 128° Southeast  Level FlightAware Approximate
05:11PM 24.5516 -102.0028 128° Southeast  Level FlightAware Approximate
05:12PM 24.4729 -101.8927 128° Southeast  Level FlightAware Approximate
05:13PM 24.3942 -101.7828 128° Southeast  Level FlightAware Approximate
05:14PM 24.3154 -101.6730 128° Southeast  Level FlightAware Approximate
05:15PM 24.2365 -101.5634 128° Southeast  Level FlightAware Approximate
05:16PM 24.1575 -101.4539 128° Southeast  Level FlightAware Approximate
05:17PM 24.0788 -101.3442 128° Southeast  Level FlightAware Approximate
05:18PM 23.9999 -101.2347 128° Southeast  Level FlightAware Approximate
05:19PM 23.9210 -101.1253 128° Southeast  Level FlightAware Approximate
05:20PM 23.8421 -101.0161 128° Southeast  Level FlightAware Approximate
05:21PM 23.7630 -100.9070 128° Southeast  Level FlightAware Approximate
05:22PM 23.6839 -100.7980 128° Southeast  Level FlightAware Approximate
05:23PM 23.6047 -100.6891 128° Southeast  Level FlightAware Approximate
05:24PM 23.5254 -100.5804 128° Southeast  Level FlightAware Approximate
05:25PM 23.4468 -100.4712 127° Southeast  Level FlightAware Approximate
05:26PM 23.3701 -100.3604 127° Southeast  Level FlightAware Approximate
05:27PM 23.2927 -100.2503 128° Southeast  Level FlightAware Approximate
05:28PM 23.2139 -100.1414 128° Southeast  Level FlightAware Approximate
05:29PM 23.1350 -100.0328 128° Southeast  Level FlightAware Approximate
05:30PM 23.0560 -99.9242 128° Southeast  Level FlightAware Approximate
05:31PM 22.9769 -99.8157 128° Southeast  Level FlightAware Approximate
05:32PM 22.8982 -99.7070 127° Southeast  Level FlightAware Approximate
05:33PM 22.8211 -99.5970 127° Southeast  Level FlightAware Approximate
05:34PM 22.7440 -99.4871 127° Southeast  Level FlightAware Approximate
05:35PM 22.6668 -99.3774 127° Southeast  Level FlightAware Approximate
05:36PM 22.5895 -99.2677 127° Southeast  Level FlightAware Approximate
05:37PM 22.5121 -99.1582 127° Southeast  Level FlightAware Approximate
05:38PM 22.4346 -99.0488 127° Southeast  Level FlightAware Approximate
05:39PM 22.3560 -98.9405 129° Southeast  Level FlightAware Approximate
05:40PM 22.2765 -98.8330 129° Southeast  Level FlightAware Approximate
05:41PM 22.1969 -98.7256 129° Southeast  Level FlightAware Approximate
05:42PM 22.1172 -98.6184 129° Southeast  Level FlightAware Approximate
05:43PM 22.0374 -98.5113 129° Southeast  Level FlightAware Approximate
05:44PM 21.9576 -98.4042 129° Southeast  Level FlightAware Approximate
05:45PM 21.8777 -98.2973 129° Southeast  Level FlightAware Approximate
05:46PM 21.7978 -98.1906 129° Southeast  Level FlightAware Approximate
05:47PM 21.7177 -98.0839 129° Southeast  Level FlightAware Approximate
05:48PM 21.6376 -97.9774 129° Southeast  Level FlightAware Approximate
05:49PM 21.5575 -97.8710 129° Southeast  Level FlightAware Approximate
05:50PM 21.4772 -97.7647 129° Southeast  Level FlightAware Approximate
05:51PM 21.3969 -97.6585 129° Southeast  Level FlightAware Approximate
05:52PM 21.3166 -97.5525 129° Southeast  Level FlightAware Approximate
05:53PM 21.2361 -97.4465 129° Southeast  Level FlightAware Approximate
05:54PM 21.1556 -97.3407 129° Southeast  Level FlightAware Approximate
05:55PM 21.0751 -97.2350 129° Southeast  Level FlightAware Approximate
05:56PM 20.9944 -97.1294 129° Southeast  Level FlightAware Approximate
05:57PM 20.9137 -97.0239 129° Southeast  Level FlightAware Approximate
05:58PM 20.8330 -96.9185 129° Southeast  Level FlightAware Approximate
05:59PM 20.7521 -96.8133 129° Southeast  Level FlightAware Approximate
06:00PM 20.6712 -96.7081 129° Southeast  Level FlightAware Approximate
06:01PM 20.5903 -96.6031 129° Southeast  Level FlightAware Approximate
06:02PM 20.5093 -96.4982 129° Southeast  Level FlightAware Approximate
06:03PM 20.4282 -96.3934 129° Southeast  Level FlightAware Approximate
06:04PM 20.3472 -96.2885 129° Southeast  Level FlightAware Approximate
06:05PM 20.2662 -96.1838 129° Southeast  Level FlightAware Approximate
06:06PM 20.1851 -96.0791 130° Southeast  Level FlightAware Approximate
06:07PM 20.1040 -95.9746 130° Southeast  Level FlightAware Approximate
06:08PM 20.0228 -95.8702 130° Southeast  Level FlightAware Approximate
06:09PM 19.9415 -95.7659 130° Southeast  Level FlightAware Approximate
06:10PM 19.8602 -95.6617 130° Southeast  Level FlightAware Approximate
06:11PM 19.7788 -95.5576 130° Southeast  Level FlightAware Approximate
06:12PM 19.6973 -95.4536 130° Southeast  Level FlightAware Approximate
06:13PM 19.6158 -95.3497 130° Southeast  Level FlightAware Approximate
06:14PM 19.5342 -95.2459 130° Southeast  Level FlightAware Approximate
06:15PM 19.4526 -95.1423 130° Southeast  Level FlightAware Approximate
06:16PM 19.3709 -95.0387 130° Southeast  Level FlightAware Approximate
06:17PM 19.2900 -94.9344 129° Southeast  Level FlightAware Approximate
06:18PM 19.2092 -94.8302 129° Southeast  Level FlightAware Approximate
06:19PM 19.1283 -94.7261 129° Southeast  Level FlightAware Approximate
06:20PM 19.0473 -94.6221 129° Southeast  Level FlightAware Approximate
06:21PM 18.9663 -94.5182 129° Southeast  Level FlightAware Approximate
06:22PM 18.8850 -94.4145 130° Southeast  Level FlightAware Approximate
06:23PM 18.8030 -94.3116 130° Southeast  Level FlightAware Approximate
06:24PM 18.7209 -94.2088 130° Southeast  Level FlightAware Approximate
06:25PM 18.6388 -94.1061 130° Southeast  Level FlightAware Approximate
06:26PM 18.5566 -94.0035 130° Southeast  Level FlightAware Approximate
06:27PM 18.4743 -93.9010 130° Southeast  Level FlightAware Approximate
06:28PM 18.3922 -93.7984 130° Southeast  Level FlightAware Approximate
06:29PM 18.3103 -93.6957 130° Southeast  Level FlightAware Approximate
06:30PM 18.2283 -93.5930 130° Southeast  Level FlightAware Approximate
06:31PM 18.1463 -93.4905 130° Southeast  Level FlightAware Approximate
06:32PM 18.0642 -93.3881 130° Southeast  Level FlightAware Approximate
06:33PM 17.9820 -93.2858 130° Southeast  Level FlightAware Approximate
06:34PM 17.8991 -93.1842 131° Southeast  Level FlightAware Approximate
06:35PM 17.8160 -93.0829 131° Southeast  Level FlightAware Approximate
06:36PM 17.7328 -92.9816 131° Southeast  Level FlightAware Approximate
06:37PM 17.6495 -92.8805 131° Southeast  Level FlightAware Approximate
06:38PM 17.5662 -92.7794 131° Southeast  Level FlightAware Approximate
06:39PM 17.4828 -92.6785 131° Southeast  Level FlightAware Approximate
06:40PM 17.3995 -92.5776 131° Southeast  Level FlightAware Approximate
06:41PM 17.3160 -92.4769 131° Southeast  Level FlightAware Approximate
06:42PM 17.2325 -92.3762 131° Southeast  Level FlightAware Approximate
06:43PM 17.1489 -92.2756 131° Southeast  Level FlightAware Approximate
06:44PM 17.0653 -92.1751 131° Southeast  Level FlightAware Approximate
06:45PM 16.9820 -92.0744 131° Southeast  Level FlightAware Approximate
06:46PM 16.8991 -91.9733 131° Southeast  Level FlightAware Approximate
06:47PM 16.8162 -91.8724 131° Southeast  Level FlightAware Approximate
06:48PM 16.7332 -91.7715 131° Southeast  Level FlightAware Approximate
06:49PM 16.6501 -91.6707 131° Southeast  Level FlightAware Approximate
06:50PM 16.5670 -91.5700 131° Southeast  Level FlightAware Approximate
06:51PM 16.4839 -91.4694 131° Southeast  Level FlightAware Approximate
06:52PM 16.4007 -91.3689 131° Southeast  Level FlightAware Approximate
06:53PM 16.3175 -91.2684 131° Southeast  Level FlightAware Approximate
06:54PM 16.2342 -91.1681 131° Southeast  Level FlightAware Approximate
06:55PM 16.1509 -91.0678 131° Southeast  Level FlightAware Approximate
06:56PM 16.0675 -90.9677 131° Southeast  Level FlightAware Approximate
06:57PM 15.9840 -90.8676 131° Southeast  Level FlightAware Approximate
06:58PM 15.9005 -90.7676 131° Southeast  Level FlightAware Approximate
06:59PM 15.8169 -90.6677 131° Southeast  Level FlightAware Approximate
07:00PM 15.7333 -90.5679 131° Southeast  Level FlightAware Approximate
07:01PM 15.6497 -90.4682 131° Southeast  Level FlightAware Approximate
07:02PM 15.5660 -90.3686 131° Southeast  Level FlightAware Approximate
07:03PM 15.4822 -90.2690 131° Southeast  Level FlightAware Approximate
07:04PM 15.3984 -90.1695 131° Southeast  Level FlightAware Approximate
07:05PM 15.3146 -90.0701 131° Southeast  Level FlightAware Approximate
07:06PM 15.2307 -89.9708 131° Southeast  Level FlightAware Approximate
07:07PM 15.1468 -89.8715 131° Southeast  Level FlightAware Approximate
07:08PM 15.0628 -89.7724 131° Southeast  Level FlightAware Approximate
07:09PM 14.9788 -89.6733 131° Southeast  Level FlightAware Approximate
07:10PM 14.8948 -89.5743 131° Southeast  Level FlightAware Approximate
07:11PM 14.8107 -89.4753 131° Southeast  Level FlightAware Approximate
07:12PM 14.7266 -89.3765 131° Southeast  Level FlightAware Approximate
07:13PM 14.6424 -89.2777 131° Southeast  Level FlightAware Approximate
07:14PM 14.5582 -89.1790 131° Southeast  Level FlightAware Approximate
07:15PM 14.4739 -89.0804 131° Southeast  Level FlightAware Approximate
07:16PM 14.3896 -88.9818 131° Southeast  Level FlightAware Approximate
07:17PM 14.3053 -88.8834 131° Southeast  Level FlightAware Approximate
07:18PM 14.2209 -88.7850 131° Southeast  Level FlightAware Approximate
07:19PM 14.1365 -88.6866 132° Southeast  Level FlightAware Approximate
07:20PM 14.0520 -88.5884 132° Southeast  Level FlightAware Approximate
07:21PM 13.9670 -88.4906 132° Southeast  Level FlightAware Approximate
07:22PM 13.8819 -88.3931 132° Southeast  Level FlightAware Approximate
07:23PM 13.7967 -88.2956 132° Southeast  Level FlightAware Approximate
07:24PM 13.7115 -88.1982 132° Southeast  Level FlightAware Approximate
07:25PM 13.6262 -88.1008 132° Southeast  Level FlightAware Approximate
07:26PM 13.5409 -88.0035 132° Southeast  Level FlightAware Approximate
07:27PM 13.4556 -87.9063 132° Southeast  Level FlightAware Approximate
07:28PM 13.3702 -87.8092 132° Southeast  Level FlightAware Approximate
07:29PM 13.2848 -87.7121 132° Southeast  Level FlightAware Approximate
07:30PM 13.1994 -87.6151 132° Southeast  Level FlightAware Approximate
07:31PM 13.1139 -87.5182 132° Southeast  Level FlightAware Approximate
07:32PM 13.0284 -87.4213 132° Southeast  Level FlightAware Approximate
07:33PM 12.9428 -87.3245 132° Southeast  Level FlightAware Approximate
07:34PM 12.8572 -87.2278 132° Southeast  Level FlightAware Approximate
07:35PM 12.7716 -87.1312 132° Southeast  Level FlightAware Approximate
07:36PM 12.6860 -87.0346 132° Southeast  Level FlightAware Approximate
07:37PM 12.6003 -86.9380 132° Southeast  Level FlightAware Approximate
07:38PM 12.5145 -86.8416 132° Southeast  Level FlightAware Approximate
07:39PM 12.4288 -86.7452 132° Southeast  Level FlightAware Approximate
07:40PM 12.3430 -86.6488 132° Southeast  Level FlightAware Approximate
07:41PM 12.2571 -86.5525 132° Southeast  Level FlightAware Approximate
07:42PM 12.1713 -86.4563 132° Southeast  Level FlightAware Approximate
07:43PM 12.0854 -86.3602 132° Southeast  Level FlightAware Approximate
07:44PM 11.9994 -86.2641 132° Southeast  Level FlightAware Approximate
07:45PM 11.9135 -86.1680 132° Southeast  Level FlightAware Approximate
07:46PM 11.8275 -86.0721 132° Southeast  Level FlightAware Approximate
07:47PM 11.7415 -85.9761 132° Southeast  Level FlightAware Approximate
07:48PM 11.6554 -85.8803 133° Southeast  Level FlightAware Approximate
07:49PM 11.5700 -85.7839 130° Southeast  Level FlightAware Approximate
07:50PM 11.4875 -85.6849 130° Southeast  Level FlightAware Approximate
07:51PM 11.4038 -85.5871 136° Southeast  Level FlightAware Approximate
07:52PM 11.3171 -85.4921 131° Southeast  Level FlightAware Approximate
07:53PM 11.2333 -85.3943 131° Southeast  Level FlightAware Approximate
07:54PM 11.1480 -85.2980 136° Southeast  Level FlightAware Approximate
07:55PM 11.0571 -85.2071 136° Southeast  Level FlightAware Approximate
07:56PM 10.9662 -85.1162 137° Southeast  Level FlightAware Approximate
07:57PM 10.8735 -85.0274 137° Southeast  Level FlightAware Approximate
07:58PM 10.7807 -84.9386 137° Southeast  Level FlightAware Approximate
07:59PM 10.6879 -84.8499 137° Southeast  Level FlightAware Approximate
08:00PM 10.5950 -84.7612 137° Southeast  Level FlightAware Approximate
08:01PM 10.4982 -84.6770 140° Southeast  Level FlightAware Approximate
08:02PM 10.3987 -84.5888 138° Southeast  Level FlightAware Approximate
08:03PM 10.2999 -84.4998 135° Southeast  Level FlightAware Approximate
08:04PM 10.2057 -84.4057 135° Southeast  Level FlightAware Approximate
08:05PM 10.1134 -84.3142 144° Southeast  Level FlightAware Approximate
08:06PM 10.0121 -84.2288 135° Southeast  Level FlightAware Approximate
08:07PM 10.0000 -84.2167 135° Southeast  Level FlightAware Approximate
08:08PM 9.9939 -84.2088 135° Southeast  Level Estimated

Login

Don't have an account? Register now (free) for customized features, flight alerts, and more!